Roadside, Pennsylvania
Current Conditions -  °F | °C
As of 1:53 AM on Thursday 23 Oct 2014 (Local Time) from KRYT Reporting Station
Few Clouds Few Clouds  
Wind Chill: 45°   Ceiling: Unl
Heat Index: 48°   Visibility: 10mi
Dew Point: 40°   Wind: 6mph
Humidity: 74%   Direction: NA
Pressure: 29.92"   Gusts: NA
Location:  39.7777°N, 77.5693°W
Report Text: KRYT 230553Z AUTO VRB05KT 10SM FEW024 09/04 A2992 RMK AO2 SLP134 T00890044 10111 20089 56011 $
Loading
Personal Weather Stations






























Interactive Weather Map
Tropical Storm Tracking
New forecast layout! Learn more

10-Day Weather Forecast

Advertisements
Track Severe Weather on mobile